createdAt,value
2022-10-02T00:01:12.459Z,3.40
2022-10-02T00:03:58.708Z,3.60
2022-10-02T00:06:49.240Z,2.58
2022-10-02T00:09:51.793Z,4.05
2022-10-02T00:12:37.344Z,3.13
2022-10-02T00:15:29.555Z,2.88
2022-10-02T00:18:20.256Z,3.15
2022-10-02T00:21:20.940Z,3.05
2022-10-02T00:24:11.848Z,3.20
2022-10-02T00:27:18.173Z,3.35
2022-10-02T00:30:04.654Z,2.60
2022-10-02T00:33:21.603Z,3.30
2022-10-02T00:36:24.901Z,2.67
2022-10-02T00:39:36.273Z,3.55
2022-10-02T00:42:48.655Z,3.33
2022-10-02T00:45:59.788Z,3.97
2022-10-02T00:48:49.386Z,3.47
2022-10-02T00:52:06.888Z,3.47
2022-10-02T00:55:34.551Z,2.80
2022-10-02T00:58:41.557Z,2.55
2022-10-02T01:01:53.685Z,2.85
2022-10-02T01:04:40.873Z,3.63
2022-10-02T01:07:27.946Z,2.63
2022-10-02T01:10:14.979Z,3.38
2022-10-02T01:13:00.526Z,3.97
2022-10-02T01:15:52.871Z,3.17
2022-10-02T01:18:38.491Z,2.83
2022-10-02T01:21:42.094Z,3.25
2022-10-02T01:24:35.378Z,3.50
2022-10-02T01:27:20.961Z,2.30
2022-10-02T01:30:09.276Z,3.53
2022-10-02T01:32:57.677Z,3.47
2022-10-02T01:35:43.697Z,2.83
2022-10-02T01:38:30.168Z,3.28
2022-10-02T01:41:15.478Z,3.10
2022-10-02T01:44:02.468Z,2.95
2022-10-02T01:47:14.510Z,3.63
2022-10-02T01:50:41.475Z,3.97
2022-10-02T01:53:34.639Z,2.30
2022-10-02T01:56:59.708Z,2.30
2022-10-02T02:00:10.504Z,2.88
2022-10-02T02:03:13.358Z,2.50
2022-10-02T02:06:12.636Z,2.42
2022-10-02T02:09:09.784Z,3.05
2022-10-02T02:12:22.386Z,2.28
2022-10-02T02:15:13.340Z,3.60
2022-10-02T02:18:17.076Z,3.33
2022-10-02T02:21:13.552Z,2.72
2022-10-02T02:24:02.930Z,2.28
2022-10-02T02:26:49.994Z,2.88
2022-10-02T02:29:37.907Z,2.63
2022-10-02T02:32:29.073Z,3.58
2022-10-02T02:35:37.871Z,2.20
2022-10-02T02:38:30.285Z,2.47
2022-10-02T02:41:24.839Z,2.13
2022-10-02T02:44:29.173Z,2.42
2022-10-02T02:47:22.618Z,2.72
2022-10-02T02:50:14.669Z,2.22
2022-10-02T02:53:22.936Z,2.50
2022-10-02T02:56:13.455Z,3.97
2022-10-02T02:59:13.446Z,2.25
2022-10-02T03:01:59.248Z,2.70
2022-10-02T03:04:44.866Z,2.38
2022-10-02T03:07:30.387Z,2.47
2022-10-02T03:10:32.439Z,3.25
2022-10-02T03:13:35.930Z,2.20
2022-10-02T03:19:34.991Z,2.90
2022-10-02T03:22:20.224Z,2.25
2022-10-02T03:25:08.749Z,2.15
2022-10-02T03:28:08.644Z,2.92
2022-10-02T03:30:55.675Z,2.75
2022-10-02T03:33:43.736Z,2.53
2022-10-02T03:36:30.881Z,2.92
2022-10-02T03:39:25.666Z,3.13
2022-10-02T03:42:13.779Z,2.42
2022-10-02T03:44:59.401Z,2.47
2022-10-02T03:47:45.147Z,2.90
2022-10-02T03:50:34.129Z,2.15
2022-10-02T03:53:25.515Z,3.70
2022-10-02T03:56:28.829Z,2.97
2022-10-02T03:59:38.769Z,2.75
2022-10-02T04:02:30.206Z,2.55
2022-10-02T04:05:40.376Z,4.28
2022-10-02T04:08:36.017Z,2.13
2022-10-02T04:11:38.582Z,2.45
2022-10-02T04:14:24.161Z,2.70
2022-10-02T04:17:20.610Z,2.30
2022-10-02T04:20:17.195Z,2.38
2022-10-02T04:23:09.136Z,2.20
2022-10-02T04:26:13.976Z,3.05
2022-10-02T04:29:12.786Z,2.60
2022-10-02T04:32:14.029Z,2.58
2022-10-02T04:34:59.735Z,2.85
2022-10-02T04:38:09.565Z,2.42
2022-10-02T04:41:11.410Z,2.42
2022-10-02T04:44:18.638Z,2.85
2022-10-02T04:47:09.849Z,1.70
2022-10-02T04:50:22.601Z,2.90
2022-10-02T04:53:26.570Z,1.95
2022-10-02T04:56:38.471Z,2.78
2022-10-02T04:59:50.122Z,2.45
2022-10-02T05:02:57.343Z,1.92
2022-10-02T05:06:06.678Z,2.00
2022-10-02T05:09:10.892Z,2.38
2022-10-02T05:12:25.844Z,1.52
2022-10-02T05:15:20.335Z,3.10
2022-10-02T05:18:18.248Z,2.15
2022-10-02T05:21:28.235Z,3.40
2022-10-02T05:24:22.891Z,2.95
2022-10-02T05:27:17.426Z,4.30
2022-10-02T05:30:07.651Z,3.90
2022-10-02T05:33:11.687Z,3.60
2022-10-02T05:36:03.237Z,3.20
2022-10-02T05:39:04.329Z,2.85
2022-10-02T05:42:05.198Z,2.72
2022-10-02T05:45:11.657Z,2.30
2022-10-02T05:48:15.752Z,3.03
2022-10-02T05:51:16.406Z,2.65
2022-10-02T05:54:13.030Z,2.15
2022-10-02T05:57:05.022Z,2.28
2022-10-02T06:00:18.051Z,2.53
2022-10-02T06:03:24.878Z,1.83
2022-10-02T06:06:25.539Z,2.17
2022-10-02T06:09:20.390Z,2.25
2022-10-02T06:12:21.053Z,2.83
2022-10-02T06:15:33.314Z,3.22
2022-10-02T06:18:23.881Z,2.55
2022-10-02T06:21:57.245Z,2.55
2022-10-02T06:24:55.490Z,3.40
2022-10-02T06:27:55.705Z,4.22
2022-10-02T06:30:46.368Z,2.55
2022-10-02T06:33:33.498Z,3.22
2022-10-02T06:36:46.110Z,2.45
2022-10-02T06:39:36.275Z,3.28
2022-10-02T06:42:39.243Z,3.88
2022-10-02T06:45:39.102Z,2.35
2022-10-02T06:48:40.721Z,2.92
2022-10-02T06:51:54.036Z,2.13
2022-10-02T06:54:44.769Z,2.90
2022-10-02T06:57:57.152Z,2.75
2022-10-02T07:01:04.524Z,2.83
2022-10-02T07:04:08.945Z,2.72
2022-10-02T07:07:14.265Z,2.80
2022-10-02T07:10:21.572Z,3.15
2022-10-02T07:13:32.430Z,3.78
2022-10-02T07:16:54.466Z,3.13
2022-10-02T07:20:11.964Z,2.45
2022-10-02T07:23:10.032Z,3.63
2022-10-02T07:26:04.393Z,2.75
2022-10-02T07:28:55.830Z,3.15
2022-10-02T07:31:46.056Z,3.60
2022-10-02T07:34:37.676Z,2.80
2022-10-02T07:37:36.272Z,3.20
2022-10-02T07:41:14.178Z,3.08
2022-10-02T07:44:38.238Z,3.45
2022-10-02T07:50:29.852Z,3.17
2022-10-02T07:53:44.226Z,3.42
2022-10-02T07:56:30.628Z,3.58
2022-10-02T07:59:18.620Z,3.05
2022-10-02T08:02:11.536Z,3.28
2022-10-02T08:05:05.489Z,3.33
2022-10-02T08:07:56.771Z,3.42
2022-10-02T08:10:46.816Z,4.00
2022-10-02T08:13:39.732Z,3.25
2022-10-02T08:16:29.814Z,3.28
2022-10-02T08:19:30.066Z,3.58
2022-10-02T08:22:23.685Z,3.33
2022-10-02T08:25:38.983Z,3.40
2022-10-02T08:28:38.607Z,3.40
2022-10-02T08:31:25.310Z,2.95
2022-10-02T08:34:25.306Z,3.30
2022-10-02T08:37:39.110Z,2.90
2022-10-02T08:40:55.262Z,3.33
2022-10-02T08:44:00.318Z,3.10
2022-10-02T08:47:23.453Z,3.17
2022-10-02T08:50:20.233Z,3.08
2022-10-02T08:53:27.452Z,3.10
2022-10-02T08:56:21.551Z,3.38
2022-10-02T08:59:28.114Z,3.25
2022-10-02T09:02:35.247Z,3.35
2022-10-02T09:05:59.221Z,2.97
2022-10-02T09:08:59.499Z,3.63
2022-10-02T09:12:15.105Z,4.63
2022-10-02T09:15:26.841Z,4.03
2022-10-02T09:18:46.198Z,3.40
2022-10-02T09:22:12.961Z,3.95
2022-10-02T09:25:14.459Z,3.50
2022-10-02T09:28:34.486Z,3.80
2022-10-02T09:32:07.724Z,4.47
2022-10-02T09:35:33.436Z,3.75
2022-10-02T09:38:38.295Z,4.43
2022-10-02T09:41:48.091Z,4.13
2022-10-02T09:45:11.907Z,4.63
2022-10-02T09:48:45.154Z,3.55
2022-10-02T09:51:40.175Z,3.83
2022-10-02T09:54:53.646Z,3.92
2022-10-02T09:58:06.366Z,4.00
2022-10-02T10:01:26.040Z,3.22
2022-10-02T10:05:05.599Z,2.92
2022-10-02T10:07:58.075Z,3.22
2022-10-02T10:11:00.579Z,3.38
2022-10-02T10:14:20.030Z,3.28
2022-10-02T10:17:56.759Z,2.97
2022-10-02T10:21:07.849Z,2.92
2022-10-02T10:24:05.090Z,2.50
2022-10-02T10:27:08.335Z,3.50
2022-10-02T10:30:31.980Z,2.30
2022-10-02T10:33:51.401Z,3.63
2022-10-02T10:37:47.847Z,3.05
2022-10-02T10:40:58.694Z,2.80
2022-10-02T10:44:23.381Z,2.55
2022-10-02T10:47:27.410Z,3.05
2022-10-02T10:51:00.419Z,3.30
2022-10-02T10:54:22.736Z,2.90
2022-10-02T10:57:26.631Z,2.95
2022-10-02T11:00:12.103Z,2.15
2022-10-02T11:03:22.453Z,2.63
2022-10-02T11:06:20.916Z,1.92
2022-10-02T11:09:30.466Z,2.33
2022-10-02T11:12:52.495Z,2.30
2022-10-02T11:16:49.030Z,2.35
2022-10-02T11:19:48.503Z,2.00
2022-10-02T11:22:42.856Z,3.22
2022-10-02T11:25:40.389Z,2.33
2022-10-02T11:28:59.346Z,2.63
2022-10-02T11:32:14.193Z,2.03
2022-10-02T11:35:24.616Z,2.38
2022-10-02T11:38:22.865Z,4.05
2022-10-02T11:41:08.158Z,2.17
2022-10-02T11:43:58.349Z,2.30
2022-10-02T11:47:03.230Z,2.22
2022-10-02T11:50:10.310Z,1.85
2022-10-02T11:53:22.617Z,2.55
2022-10-02T11:56:45.167Z,2.17
2022-10-02T12:00:06.050Z,2.20
2022-10-02T12:03:19.695Z,2.83
2022-10-02T12:06:33.521Z,1.85
2022-10-02T12:09:33.866Z,1.90
2022-10-02T12:12:48.448Z,2.58
2022-10-02T12:16:10.787Z,1.98
2022-10-02T12:19:23.133Z,2.33
2022-10-02T12:22:50.134Z,2.92
2022-10-02T12:25:57.487Z,2.72
2022-10-02T12:28:56.213Z,2.65
2022-10-02T12:32:08.164Z,2.70
2022-10-02T12:35:23.082Z,2.10
2022-10-02T12:38:34.341Z,2.10
2022-10-02T12:41:35.430Z,1.73
2022-10-02T12:44:51.533Z,2.22
2022-10-02T12:48:09.763Z,2.40
2022-10-02T12:51:22.563Z,2.25
2022-10-02T12:54:34.958Z,2.10
2022-10-02T12:57:53.135Z,1.98
2022-10-02T13:01:09.392Z,2.05
2022-10-02T13:04:18.962Z,1.88
2022-10-02T13:07:26.175Z,1.98
2022-10-02T13:10:25.616Z,2.00
2022-10-02T13:13:41.386Z,2.65
2022-10-02T13:16:33.914Z,1.80
2022-10-02T13:19:39.706Z,2.38
2022-10-02T13:22:34.144Z,2.28
2022-10-02T13:25:33.194Z,1.58
2022-10-02T13:28:51.855Z,1.92
2022-10-02T13:31:58.701Z,1.90
2022-10-02T13:34:51.109Z,1.90
2022-10-02T13:37:59.272Z,1.93
2022-10-02T13:40:53.635Z,1.60
2022-10-02T13:44:01.037Z,1.70
2022-10-02T13:47:14.066Z,2.42
2022-10-02T13:50:39.678Z,2.30
2022-10-02T13:53:57.762Z,2.30
2022-10-02T13:57:15.025Z,1.80
2022-10-02T14:00:13.560Z,2.42
2022-10-02T14:02:59.157Z,1.70
2022-10-02T14:05:57.005Z,2.30
2022-10-02T14:09:13.595Z,2.38
2022-10-02T14:12:27.679Z,1.75
2022-10-02T14:15:12.858Z,2.05
2022-10-02T14:18:20.782Z,1.50
2022-10-02T14:21:14.510Z,1.63
2022-10-02T14:24:14.531Z,1.77
2022-10-02T14:27:37.530Z,1.75
2022-10-02T14:30:55.220Z,2.58
2022-10-02T14:34:01.456Z,2.85
2022-10-02T14:36:56.110Z,2.60
2022-10-02T14:39:42.482Z,2.00
2022-10-02T14:42:54.176Z,1.73
2022-10-02T14:46:03.021Z,2.25
2022-10-02T14:49:12.419Z,1.85
2022-10-02T14:52:19.418Z,1.85
2022-10-02T14:55:49.378Z,1.92
2022-10-02T14:58:40.530Z,1.98
2022-10-02T15:01:29.110Z,2.13
2022-10-02T15:04:41.505Z,2.10
2022-10-02T15:07:28.688Z,2.75
2022-10-02T15:10:27.326Z,2.22
2022-10-02T15:13:58.488Z,1.80
2022-10-02T15:17:14.735Z,1.60
2022-10-02T15:20:23.280Z,2.17
2022-10-02T15:23:13.825Z,2.53
2022-10-02T15:26:14.889Z,2.10
2022-10-02T15:29:21.059Z,1.63
2022-10-02T15:32:09.318Z,1.63
2022-10-02T15:35:29.640Z,1.98
2022-10-02T15:38:44.469Z,1.83
2022-10-02T15:41:57.547Z,2.08
2022-10-02T15:45:07.586Z,2.03
2022-10-02T15:48:01.557Z,1.63
2022-10-02T15:51:22.904Z,1.55
2022-10-02T15:54:17.850Z,1.63
2022-10-02T15:57:27.631Z,1.85
2022-10-02T16:00:19.508Z,1.77
2022-10-02T16:03:21.306Z,2.28
2022-10-02T16:06:09.624Z,1.95
2022-10-02T16:09:03.904Z,2.30
2022-10-02T16:11:55.172Z,1.88
2022-10-02T16:15:24.800Z,1.80
2022-10-02T16:18:14.063Z,2.38
2022-10-02T16:21:12.756Z,2.17
2022-10-02T16:24:16.416Z,1.73
2022-10-02T16:27:20.334Z,2.13
2022-10-02T16:30:13.778Z,2.72
2022-10-02T16:36:17.532Z,1.90
2022-10-02T16:39:05.408Z,1.83
2022-10-02T16:42:28.138Z,2.05
2022-10-02T16:45:38.317Z,2.42
2022-10-02T16:48:35.046Z,2.15
2022-10-02T16:51:55.789Z,2.33
2022-10-02T16:54:48.996Z,2.38
2022-10-02T16:57:43.081Z,2.30
2022-10-02T17:00:39.223Z,2.55
2022-10-02T17:04:00.779Z,2.88
2022-10-02T17:07:02.829Z,2.28
2022-10-02T17:10:07.877Z,3.35
2022-10-02T17:12:59.170Z,1.98
2022-10-02T17:16:07.037Z,2.50
2022-10-02T17:19:01.876Z,2.25
2022-10-02T17:22:04.697Z,2.45
2022-10-02T17:25:06.647Z,3.22
2022-10-02T17:27:59.194Z,4.30
2022-10-02T17:31:06.314Z,4.03
2022-10-02T17:33:56.442Z,3.10
2022-10-02T17:37:07.192Z,2.80
2022-10-02T17:40:16.525Z,2.22
2022-10-02T17:43:07.685Z,2.35
2022-10-02T17:46:30.481Z,2.60
2022-10-02T17:49:27.727Z,2.88
2022-10-02T17:52:50.746Z,2.22
2022-10-02T17:56:17.692Z,2.17
2022-10-02T17:59:26.132Z,2.58
2022-10-02T18:02:22.123Z,2.08
2022-10-02T18:05:25.703Z,3.75
2022-10-02T18:08:30.732Z,2.55
2022-10-02T18:11:31.442Z,2.33
2022-10-02T18:14:50.636Z,2.70
2022-10-02T18:17:48.008Z,2.33
2022-10-02T18:20:35.890Z,2.28
2022-10-02T18:23:42.457Z,3.42
2022-10-02T18:26:49.024Z,2.83
2022-10-02T18:30:12.891Z,3.67
2022-10-02T18:33:25.103Z,3.35
2022-10-02T18:36:50.101Z,4.47
2022-10-02T18:40:03.617Z,5.15
2022-10-02T18:43:12.615Z,4.45
2022-10-02T18:46:09.287Z,4.35
2022-10-02T18:49:25.792Z,5.03
2022-10-02T18:52:23.166Z,4.63
2022-10-02T18:55:36.255Z,6.10
2022-10-02T19:03:44.089Z,5.72
2022-10-02T19:06:47.490Z,5.43
2022-10-02T19:09:32.789Z,5.35
2022-10-02T19:12:25.429Z,5.78
2022-10-02T19:15:27.747Z,6.53
2022-10-02T19:18:30.807Z,5.03
2022-10-02T19:21:21.096Z,4.68
2022-10-02T19:24:15.153Z,4.60
2022-10-02T19:27:04.886Z,4.13
2022-10-02T19:29:56.282Z,5.63
2022-10-02T19:32:42.523Z,5.10
2022-10-02T19:35:38.598Z,5.07
2022-10-02T19:38:30.706Z,4.55
2022-10-02T19:41:16.827Z,6.95
2022-10-02T19:44:07.818Z,7.25
2022-10-02T19:46:57.471Z,7.03
2022-10-02T19:49:46.916Z,7.68
2022-10-02T19:52:37.921Z,6.80
2022-10-02T19:55:32.288Z,6.57
2022-10-02T19:58:21.948Z,5.70
2022-10-02T20:01:35.419Z,5.47
2022-10-02T20:04:23.655Z,4.65
2022-10-02T20:07:16.406Z,4.70
2022-10-02T20:10:11.264Z,4.90
2022-10-02T20:13:16.372Z,4.55
2022-10-02T20:16:41.652Z,5.45
2022-10-02T20:19:56.114Z,3.78
2022-10-02T20:22:48.431Z,4.05
2022-10-02T20:25:45.287Z,4.10
2022-10-02T20:29:00.499Z,3.92
2022-10-02T20:31:53.033Z,4.70
2022-10-02T20:34:55.743Z,4.50
2022-10-02T20:37:45.593Z,5.03
2022-10-02T20:40:36.636Z,4.90
2022-10-02T20:43:48.625Z,5.55
2022-10-02T20:46:35.727Z,5.00
2022-10-02T20:49:27.301Z,4.65
2022-10-02T20:52:49.141Z,4.72
2022-10-02T20:55:42.182Z,5.07
2022-10-02T20:58:50.205Z,4.45
2022-10-02T21:01:59.362Z,5.40
2022-10-02T21:05:08.729Z,4.95
2022-10-02T21:08:15.765Z,4.40
2022-10-02T21:11:16.106Z,5.03
2022-10-02T21:14:04.297Z,4.75
2022-10-02T21:17:17.214Z,5.20
2022-10-02T21:20:14.135Z,5.57
2022-10-02T21:23:21.207Z,4.80
2022-10-02T21:26:33.025Z,6.05
2022-10-02T21:29:30.458Z,6.18
2022-10-02T21:32:35.878Z,4.97
2022-10-02T21:35:45.056Z,4.97
2022-10-02T21:38:49.213Z,5.32
2022-10-02T21:41:40.467Z,5.25
2022-10-02T21:45:04.467Z,4.93
2022-10-02T21:48:24.263Z,5.00
2022-10-02T21:51:31.625Z,5.10
2022-10-02T21:54:29.238Z,5.20
2022-10-02T21:57:53.215Z,4.20
2022-10-02T22:00:50.699Z,5.88
2022-10-02T22:03:54.465Z,4.75
2022-10-02T22:06:52.480Z,4.78
2022-10-02T22:09:47.497Z,5.85
2022-10-02T22:12:39.715Z,5.32
2022-10-02T22:15:39.958Z,5.18
2022-10-02T22:18:37.701Z,4.57
2022-10-02T22:21:40.081Z,5.60
2022-10-02T22:24:52.054Z,4.93
2022-10-02T22:27:50.443Z,5.03
2022-10-02T22:31:06.404Z,4.70
2022-10-02T22:34:10.815Z,5.90
2022-10-02T22:37:00.860Z,5.35
2022-10-02T22:40:07.688Z,5.40
2022-10-02T22:43:05.937Z,5.80
2022-10-02T22:45:58.915Z,5.47
2022-10-02T22:48:50.065Z,5.13
2022-10-02T22:52:07.865Z,5.40
2022-10-02T22:55:00.795Z,4.88
2022-10-02T22:57:57.234Z,5.10
2022-10-02T23:01:16.481Z,4.40
2022-10-02T23:04:16.572Z,4.60
2022-10-02T23:07:41.451Z,5.38
2022-10-02T23:10:43.646Z,4.82
2022-10-02T23:13:47.802Z,5.10
2022-10-02T23:16:51.780Z,5.47
2022-10-02T23:19:55.728Z,5.20
2022-10-02T23:22:54.379Z,5.75
2022-10-02T23:25:52.554Z,5.35
2022-10-02T23:28:54.942Z,4.82
2022-10-02T23:32:13.764Z,5.03
2022-10-02T23:35:09.724Z,5.97
2022-10-02T23:38:15.248Z,5.15
2022-10-02T23:41:28.708Z,5.50
2022-10-02T23:44:36.687Z,6.45
2022-10-02T23:47:51.070Z,5.95
2022-10-02T23:50:48.350Z,5.85
2022-10-02T23:53:42.889Z,6.47
2022-10-02T23:57:05.991Z,5.57
